sensor_id;sensor_type;location;lat;lon;timestamp;P1;durP1;ratioP1;P2;durP2;ratioP2
66298;SDS011;53098;47.658;8.578;2022-11-27T00:02:20;16.87;;;4.80;;
66298;SDS011;53098;47.658;8.578;2022-11-27T00:04:45;16.63;;;4.67;;
66298;SDS011;53098;47.658;8.578;2022-11-27T00:07:11;13.67;;;5.07;;
66298;SDS011;53098;47.658;8.578;2022-11-27T00:09:36;25.93;;;6.60;;
66298;SDS011;53098;47.658;8.578;2022-11-27T00:12:01;22.60;;;7.47;;
66298;SDS011;53098;47.658;8.578;2022-11-27T00:14:26;26.33;;;7.77;;
66298;SDS011;53098;47.658;8.578;2022-11-27T00:16:52;22.77;;;8.60;;
66298;SDS011;53098;47.658;8.578;2022-11-27T00:19:17;22.40;;;7.60;;
66298;SDS011;53098;47.658;8.578;2022-11-27T00:21:42;22.00;;;8.07;;
66298;SDS011;53098;47.658;8.578;2022-11-27T00:24:09;17.20;;;7.97;;
66298;SDS011;53098;47.658;8.578;2022-11-27T00:26:34;20.58;;;8.23;;
66298;SDS011;53098;47.658;8.578;2022-11-27T00:28:59;24.63;;;9.00;;
66298;SDS011;53098;47.658;8.578;2022-11-27T00:31:27;16.92;;;8.25;;
66298;SDS011;53098;47.658;8.578;2022-11-27T00:33:53;18.40;;;8.10;;
66298;SDS011;53098;47.658;8.578;2022-11-27T00:36:19;18.92;;;8.40;;
66298;SDS011;53098;47.658;8.578;2022-11-27T00:38:44;17.55;;;8.18;;
66298;SDS011;53098;47.658;8.578;2022-11-27T00:41:10;21.97;;;8.73;;
66298;SDS011;53098;47.658;8.578;2022-11-27T00:43:36;24.55;;;8.13;;
66298;SDS011;53098;47.658;8.578;2022-11-27T00:46:02;22.17;;;7.45;;
66298;SDS011;53098;47.658;8.578;2022-11-27T00:48:27;24.13;;;8.15;;
66298;SDS011;53098;47.658;8.578;2022-11-27T00:51:03;23.00;;;8.23;;
66298;SDS011;53098;47.658;8.578;2022-11-27T00:53:29;20.30;;;8.60;;
66298;SDS011;53098;47.658;8.578;2022-11-27T00:55:55;21.38;;;9.15;;
66298;SDS011;53098;47.658;8.578;2022-11-27T00:58:20;20.47;;;9.03;;
66298;SDS011;53098;47.658;8.578;2022-11-27T01:00:46;18.48;;;8.65;;
66298;SDS011;53098;47.658;8.578;2022-11-27T01:03:17;19.33;;;9.18;;
66298;SDS011;53098;47.658;8.578;2022-11-27T01:05:43;21.20;;;9.27;;
66298;SDS011;53098;47.658;8.578;2022-11-27T01:08:08;20.67;;;9.07;;
66298;SDS011;53098;47.658;8.578;2022-11-27T01:10:33;23.17;;;9.87;;
66298;SDS011;53098;47.658;8.578;2022-11-27T01:12:59;22.30;;;9.57;;
66298;SDS011;53098;47.658;8.578;2022-11-27T01:15:24;20.17;;;9.43;;
66298;SDS011;53098;47.658;8.578;2022-11-27T01:17:49;22.90;;;9.03;;
66298;SDS011;53098;47.658;8.578;2022-11-27T01:20:14;21.20;;;10.03;;
66298;SDS011;53098;47.658;8.578;2022-11-27T01:22:40;20.23;;;9.40;;
66298;SDS011;53098;47.658;8.578;2022-11-27T01:25:05;19.83;;;8.87;;
66298;SDS011;53098;47.658;8.578;2022-11-27T01:27:30;18.88;;;9.50;;
66298;SDS011;53098;47.658;8.578;2022-11-27T01:29:56;21.10;;;9.80;;
66298;SDS011;53098;47.658;8.578;2022-11-27T01:32:21;20.73;;;8.80;;
66298;SDS011;53098;47.658;8.578;2022-11-27T01:34:46;20.73;;;9.00;;
66298;SDS011;53098;47.658;8.578;2022-11-27T01:37:11;19.20;;;9.17;;
66298;SDS011;53098;47.658;8.578;2022-11-27T01:39:37;17.63;;;8.70;;
66298;SDS011;53098;47.658;8.578;2022-11-27T01:42:02;20.70;;;9.10;;
66298;SDS011;53098;47.658;8.578;2022-11-27T01:49:34;20.13;;;9.57;;
66298;SDS011;53098;47.658;8.578;2022-11-27T01:52:08;19.23;;;9.68;;
66298;SDS011;53098;47.658;8.578;2022-11-27T01:54:40;19.63;;;10.00;;
66298;SDS011;53098;47.658;8.578;2022-11-27T01:57:09;19.15;;;9.02;;
66298;SDS011;53098;47.658;8.578;2022-11-27T01:59:35;19.55;;;9.73;;
66298;SDS011;53098;47.658;8.578;2022-11-27T02:02:01;21.42;;;9.50;;
66298;SDS011;53098;47.658;8.578;2022-11-27T02:04:27;17.67;;;9.60;;
66298;SDS011;53098;47.658;8.578;2022-11-27T02:06:52;18.73;;;8.80;;
66298;SDS011;53098;47.658;8.578;2022-11-27T02:09:19;18.00;;;9.15;;
66298;SDS011;53098;47.658;8.578;2022-11-27T02:11:47;18.40;;;9.73;;
66298;SDS011;53098;47.658;8.578;2022-11-27T02:17:02;16.30;;;8.80;;
66298;SDS011;53098;47.658;8.578;2022-11-27T02:19:37;19.58;;;9.15;;
66298;SDS011;53098;47.658;8.578;2022-11-27T02:27:37;16.70;;;9.20;;
66298;SDS011;53098;47.658;8.578;2022-11-27T02:30:06;17.25;;;8.77;;
66298;SDS011;53098;47.658;8.578;2022-11-27T02:32:36;16.15;;;8.30;;
66298;SDS011;53098;47.658;8.578;2022-11-27T02:35:09;17.23;;;9.63;;
66298;SDS011;53098;47.658;8.578;2022-11-27T02:40:21;17.27;;;9.32;;
66298;SDS011;53098;47.658;8.578;2022-11-27T02:42:58;17.58;;;9.15;;
66298;SDS011;53098;47.658;8.578;2022-11-27T02:45:32;17.23;;;9.48;;
66298;SDS011;53098;47.658;8.578;2022-11-27T02:47:59;16.45;;;9.15;;
66298;SDS011;53098;47.658;8.578;2022-11-27T02:50:25;20.52;;;9.20;;
66298;SDS011;53098;47.658;8.578;2022-11-27T02:52:53;17.75;;;8.63;;
66298;SDS011;53098;47.658;8.578;2022-11-27T02:55:21;16.27;;;9.10;;
66298;SDS011;53098;47.658;8.578;2022-11-27T02:57:47;16.70;;;8.88;;
66298;SDS011;53098;47.658;8.578;2022-11-27T03:00:13;17.38;;;9.48;;
66298;SDS011;53098;47.658;8.578;2022-11-27T03:02:39;18.63;;;9.07;;
66298;SDS011;53098;47.658;8.578;2022-11-27T03:05:07;15.50;;;8.80;;
66298;SDS011;53098;47.658;8.578;2022-11-27T03:07:36;18.27;;;9.45;;
66298;SDS011;53098;47.658;8.578;2022-11-27T03:10:06;16.52;;;9.43;;
66298;SDS011;53098;47.658;8.578;2022-11-27T03:12:33;16.63;;;9.13;;
66298;SDS011;53098;47.658;8.578;2022-11-27T03:14:58;16.88;;;9.48;;
66298;SDS011;53098;47.658;8.578;2022-11-27T03:17:35;18.55;;;8.82;;
66298;SDS011;53098;47.658;8.578;2022-11-27T03:22:34;17.08;;;8.57;;
66298;SDS011;53098;47.658;8.578;2022-11-27T03:25:00;19.88;;;8.48;;
66298;SDS011;53098;47.658;8.578;2022-11-27T03:27:27;15.95;;;8.30;;
66298;SDS011;53098;47.658;8.578;2022-11-27T03:29:54;18.00;;;8.25;;
66298;SDS011;53098;47.658;8.578;2022-11-27T03:32:21;15.90;;;8.07;;
66298;SDS011;53098;47.658;8.578;2022-11-27T03:34:46;14.02;;;7.80;;
66298;SDS011;53098;47.658;8.578;2022-11-27T03:37:12;16.23;;;8.05;;
66298;SDS011;53098;47.658;8.578;2022-11-27T03:39:38;14.77;;;8.30;;
66298;SDS011;53098;47.658;8.578;2022-11-27T03:42:15;16.85;;;8.18;;
66298;SDS011;53098;47.658;8.578;2022-11-27T03:52:40;15.50;;;7.97;;
66298;SDS011;53098;47.658;8.578;2022-11-27T04:00:05;14.67;;;8.07;;
66298;SDS011;53098;47.658;8.578;2022-11-27T04:03:04;14.43;;;8.13;;
66298;SDS011;53098;47.658;8.578;2022-11-27T04:05:22;13.90;;;7.80;;
66298;SDS011;53098;47.658;8.578;2022-11-27T04:07:47;16.23;;;8.18;;
66298;SDS011;53098;47.658;8.578;2022-11-27T04:10:13;18.83;;;8.00;;
66298;SDS011;53098;47.658;8.578;2022-11-27T04:12:38;15.30;;;7.60;;
66298;SDS011;53098;47.658;8.578;2022-11-27T04:15:04;15.73;;;7.13;;
66298;SDS011;53098;47.658;8.578;2022-11-27T04:17:29;14.75;;;6.78;;
66298;SDS011;53098;47.658;8.578;2022-11-27T04:19:54;16.47;;;7.83;;
66298;SDS011;53098;47.658;8.578;2022-11-27T04:22:20;15.03;;;7.37;;
66298;SDS011;53098;47.658;8.578;2022-11-27T04:24:45;14.80;;;7.10;;
66298;SDS011;53098;47.658;8.578;2022-11-27T04:27:10;14.53;;;8.57;;
66298;SDS011;53098;47.658;8.578;2022-11-27T04:29:36;17.10;;;8.30;;
66298;SDS011;53098;47.658;8.578;2022-11-27T04:32:01;16.13;;;8.37;;
66298;SDS011;53098;47.658;8.578;2022-11-27T04:34:27;13.68;;;7.78;;
66298;SDS011;53098;47.658;8.578;2022-11-27T04:36:52;14.90;;;7.20;;
66298;SDS011;53098;47.658;8.578;2022-11-27T04:39:18;13.23;;;7.63;;
66298;SDS011;53098;47.658;8.578;2022-11-27T04:41:43;13.97;;;7.77;;
66298;SDS011;53098;47.658;8.578;2022-11-27T04:44:09;16.97;;;8.93;;
66298;SDS011;53098;47.658;8.578;2022-11-27T04:46:35;17.65;;;7.95;;
66298;SDS011;53098;47.658;8.578;2022-11-27T04:49:00;14.35;;;7.53;;
66298;SDS011;53098;47.658;8.578;2022-11-27T04:51:25;15.83;;;7.90;;
66298;SDS011;53098;47.658;8.578;2022-11-27T04:53:50;16.47;;;8.23;;
66298;SDS011;53098;47.658;8.578;2022-11-27T04:56:16;14.23;;;6.63;;
66298;SDS011;53098;47.658;8.578;2022-11-27T04:58:41;13.43;;;7.20;;
66298;SDS011;53098;47.658;8.578;2022-11-27T05:01:07;15.93;;;7.77;;
66298;SDS011;53098;47.658;8.578;2022-11-27T05:03:32;13.45;;;7.15;;
66298;SDS011;53098;47.658;8.578;2022-11-27T05:05:57;18.83;;;7.83;;
66298;SDS011;53098;47.658;8.578;2022-11-27T05:08:23;17.07;;;8.53;;
66298;SDS011;53098;47.658;8.578;2022-11-27T05:10:59;14.93;;;7.53;;
66298;SDS011;53098;47.658;8.578;2022-11-27T05:13:24;13.68;;;7.13;;
66298;SDS011;53098;47.658;8.578;2022-11-27T05:15:49;15.37;;;8.13;;
66298;SDS011;53098;47.658;8.578;2022-11-27T05:18:14;15.37;;;8.37;;
66298;SDS011;53098;47.658;8.578;2022-11-27T05:20:40;17.60;;;8.43;;
66298;SDS011;53098;47.658;8.578;2022-11-27T05:23:05;16.17;;;7.83;;
66298;SDS011;53098;47.658;8.578;2022-11-27T05:25:31;18.60;;;6.93;;
66298;SDS011;53098;47.658;8.578;2022-11-27T05:27:59;14.95;;;7.53;;
66298;SDS011;53098;47.658;8.578;2022-11-27T05:30:24;13.10;;;6.82;;
66298;SDS011;53098;47.658;8.578;2022-11-27T05:32:49;14.40;;;7.90;;
66298;SDS011;53098;47.658;8.578;2022-11-27T05:35:15;14.87;;;7.73;;
66298;SDS011;53098;47.658;8.578;2022-11-27T05:37:43;14.77;;;7.57;;
66298;SDS011;53098;47.658;8.578;2022-11-27T05:40:08;14.93;;;7.10;;
66298;SDS011;53098;47.658;8.578;2022-11-27T05:42:34;16.88;;;7.70;;
66298;SDS011;53098;47.658;8.578;2022-11-27T05:44:59;16.07;;;7.50;;
66298;SDS011;53098;47.658;8.578;2022-11-27T05:47:24;12.67;;;6.67;;
66298;SDS011;53098;47.658;8.578;2022-11-27T05:49:50;14.57;;;6.25;;
66298;SDS011;53098;47.658;8.578;2022-11-27T05:52:15;16.20;;;7.53;;
66298;SDS011;53098;47.658;8.578;2022-11-27T05:54:40;15.70;;;6.72;;
66298;SDS011;53098;47.658;8.578;2022-11-27T05:57:05;14.83;;;7.37;;
66298;SDS011;53098;47.658;8.578;2022-11-27T05:59:31;13.63;;;6.97;;
66298;SDS011;53098;47.658;8.578;2022-11-27T06:01:56;16.60;;;7.43;;
66298;SDS011;53098;47.658;8.578;2022-11-27T06:04:21;16.30;;;6.63;;
66298;SDS011;53098;47.658;8.578;2022-11-27T06:06:47;13.83;;;7.03;;
66298;SDS011;53098;47.658;8.578;2022-11-27T06:09:12;14.00;;;6.77;;
66298;SDS011;53098;47.658;8.578;2022-11-27T06:11:37;16.20;;;7.93;;
66298;SDS011;53098;47.658;8.578;2022-11-27T06:14:03;14.20;;;6.90;;
66298;SDS011;53098;47.658;8.578;2022-11-27T06:16:31;14.25;;;7.20;;
66298;SDS011;53098;47.658;8.578;2022-11-27T06:18:56;12.77;;;7.15;;
66298;SDS011;53098;47.658;8.578;2022-11-27T06:21:22;13.90;;;7.50;;
66298;SDS011;53098;47.658;8.578;2022-11-27T06:23:47;14.25;;;6.72;;
66298;SDS011;53098;47.658;8.578;2022-11-27T06:26:16;13.77;;;7.23;;
66298;SDS011;53098;47.658;8.578;2022-11-27T06:28:42;11.32;;;6.28;;
66298;SDS011;53098;47.658;8.578;2022-11-27T06:31:12;14.20;;;6.65;;
66298;SDS011;53098;47.658;8.578;2022-11-27T06:33:37;13.60;;;6.72;;
66298;SDS011;53098;47.658;8.578;2022-11-27T06:36:03;13.50;;;6.57;;
66298;SDS011;53098;47.658;8.578;2022-11-27T06:38:30;13.13;;;6.53;;
66298;SDS011;53098;47.658;8.578;2022-11-27T06:41:00;14.52;;;6.63;;
66298;SDS011;53098;47.658;8.578;2022-11-27T06:43:25;11.68;;;6.30;;
66298;SDS011;53098;47.658;8.578;2022-11-27T06:45:54;14.00;;;6.82;;
66298;SDS011;53098;47.658;8.578;2022-11-27T06:48:20;14.00;;;6.57;;
66298;SDS011;53098;47.658;8.578;2022-11-27T06:50:45;18.53;;;10.73;;
66298;SDS011;53098;47.658;8.578;2022-11-27T06:53:10;18.43;;;9.10;;
66298;SDS011;53098;47.658;8.578;2022-11-27T06:55:36;16.63;;;8.93;;
66298;SDS011;53098;47.658;8.578;2022-11-27T06:58:02;18.13;;;8.75;;
66298;SDS011;53098;47.658;8.578;2022-11-27T07:00:27;19.90;;;9.33;;
66298;SDS011;53098;47.658;8.578;2022-11-27T07:02:53;18.60;;;9.70;;
66298;SDS011;53098;47.658;8.578;2022-11-27T07:05:18;18.15;;;9.10;;
66298;SDS011;53098;47.658;8.578;2022-11-27T07:07:43;17.97;;;7.87;;
66298;SDS011;53098;47.658;8.578;2022-11-27T07:10:08;14.53;;;7.07;;
66298;SDS011;53098;47.658;8.578;2022-11-27T07:12:34;16.60;;;8.57;;
66298;SDS011;53098;47.658;8.578;2022-11-27T07:14:59;15.87;;;7.77;;
66298;SDS011;53098;47.658;8.578;2022-11-27T07:17:24;15.87;;;7.70;;
66298;SDS011;53098;47.658;8.578;2022-11-27T07:19:50;13.37;;;7.47;;
66298;SDS011;53098;47.658;8.578;2022-11-27T07:22:15;17.50;;;8.30;;
66298;SDS011;53098;47.658;8.578;2022-11-27T07:24:40;13.77;;;7.37;;
66298;SDS011;53098;47.658;8.578;2022-11-27T07:27:05;12.77;;;6.83;;
66298;SDS011;53098;47.658;8.578;2022-11-27T07:29:31;13.83;;;7.80;;
66298;SDS011;53098;47.658;8.578;2022-11-27T07:31:56;16.45;;;6.85;;
66298;SDS011;53098;47.658;8.578;2022-11-27T07:34:21;14.97;;;7.03;;
66298;SDS011;53098;47.658;8.578;2022-11-27T07:36:47;16.13;;;8.37;;
66298;SDS011;53098;47.658;8.578;2022-11-27T07:39:12;14.27;;;7.20;;
66298;SDS011;53098;47.658;8.578;2022-11-27T07:41:37;19.10;;;9.87;;
66298;SDS011;53098;47.658;8.578;2022-11-27T07:44:03;16.03;;;8.80;;
66298;SDS011;53098;47.658;8.578;2022-11-27T07:46:28;16.58;;;7.53;;
66298;SDS011;53098;47.658;8.578;2022-11-27T07:48:53;14.53;;;8.13;;
66298;SDS011;53098;47.658;8.578;2022-11-27T07:51:19;15.17;;;7.93;;
66298;SDS011;53098;47.658;8.578;2022-11-27T07:53:45;14.90;;;8.27;;
66298;SDS011;53098;47.658;8.578;2022-11-27T07:56:11;17.35;;;8.43;;
66298;SDS011;53098;47.658;8.578;2022-11-27T07:58:36;19.33;;;9.82;;
66298;SDS011;53098;47.658;8.578;2022-11-27T08:01:06;21.27;;;11.52;;
66298;SDS011;53098;47.658;8.578;2022-11-27T08:03:31;19.30;;;10.20;;
66298;SDS011;53098;47.658;8.578;2022-11-27T08:05:57;19.70;;;10.30;;
66298;SDS011;53098;47.658;8.578;2022-11-27T08:08:22;17.50;;;10.23;;
66298;SDS011;53098;47.658;8.578;2022-11-27T08:10:47;18.67;;;10.20;;
66298;SDS011;53098;47.658;8.578;2022-11-27T08:13:13;20.25;;;10.38;;
66298;SDS011;53098;47.658;8.578;2022-11-27T08:15:38;18.80;;;10.90;;
66298;SDS011;53098;47.658;8.578;2022-11-27T08:18:03;20.13;;;10.80;;
66298;SDS011;53098;47.658;8.578;2022-11-27T08:20:29;18.40;;;10.53;;
66298;SDS011;53098;47.658;8.578;2022-11-27T08:22:54;20.50;;;10.50;;
66298;SDS011;53098;47.658;8.578;2022-11-27T08:25:19;16.97;;;9.53;;
66298;SDS011;53098;47.658;8.578;2022-11-27T08:27:45;19.40;;;10.05;;
66298;SDS011;53098;47.658;8.578;2022-11-27T08:30:10;17.63;;;10.10;;
66298;SDS011;53098;47.658;8.578;2022-11-27T08:32:39;19.83;;;11.45;;
66298;SDS011;53098;47.658;8.578;2022-11-27T08:35:04;16.02;;;9.75;;
66298;SDS011;53098;47.658;8.578;2022-11-27T08:37:30;18.23;;;9.65;;
66298;SDS011;53098;47.658;8.578;2022-11-27T08:39:55;19.67;;;10.10;;
66298;SDS011;53098;47.658;8.578;2022-11-27T08:42:20;16.23;;;10.00;;
66298;SDS011;53098;47.658;8.578;2022-11-27T08:44:45;24.20;;;12.33;;
66298;SDS011;53098;47.658;8.578;2022-11-27T08:47:11;21.27;;;10.90;;
66298;SDS011;53098;47.658;8.578;2022-11-27T08:49:36;17.97;;;10.27;;
66298;SDS011;53098;47.658;8.578;2022-11-27T08:52:02;16.57;;;9.97;;
66298;SDS011;53098;47.658;8.578;2022-11-27T08:54:27;19.35;;;10.57;;
66298;SDS011;53098;47.658;8.578;2022-11-27T08:56:52;21.47;;;10.13;;
66298;SDS011;53098;47.658;8.578;2022-11-27T08:59:18;20.03;;;10.50;;
66298;SDS011;53098;47.658;8.578;2022-11-27T09:01:43;16.53;;;10.57;;
66298;SDS011;53098;47.658;8.578;2022-11-27T09:04:08;17.90;;;10.87;;
66298;SDS011;53098;47.658;8.578;2022-11-27T09:06:34;16.00;;;9.03;;
66298;SDS011;53098;47.658;8.578;2022-11-27T09:09:00;18.45;;;9.65;;
66298;SDS011;53098;47.658;8.578;2022-11-27T09:11:25;17.70;;;9.10;;
66298;SDS011;53098;47.658;8.578;2022-11-27T09:13:51;16.50;;;9.40;;
66298;SDS011;53098;47.658;8.578;2022-11-27T09:16:17;17.80;;;9.50;;
66298;SDS011;53098;47.658;8.578;2022-11-27T09:18:43;17.25;;;9.65;;
66298;SDS011;53098;47.658;8.578;2022-11-27T09:21:09;16.67;;;9.27;;
66298;SDS011;53098;47.658;8.578;2022-11-27T09:23:34;19.90;;;9.40;;
66298;SDS011;53098;47.658;8.578;2022-11-27T09:26:00;15.50;;;8.80;;
66298;SDS011;53098;47.658;8.578;2022-11-27T09:28:26;17.10;;;8.88;;
66298;SDS011;53098;47.658;8.578;2022-11-27T09:30:54;17.43;;;9.83;;
66298;SDS011;53098;47.658;8.578;2022-11-27T09:33:20;19.83;;;10.73;;
66298;SDS011;53098;47.658;8.578;2022-11-27T09:35:45;18.33;;;10.20;;
66298;SDS011;53098;47.658;8.578;2022-11-27T09:38:10;17.83;;;9.50;;
66298;SDS011;53098;47.658;8.578;2022-11-27T09:40:36;19.03;;;9.03;;
66298;SDS011;53098;47.658;8.578;2022-11-27T09:43:02;17.47;;;9.53;;
66298;SDS011;53098;47.658;8.578;2022-11-27T09:45:28;18.45;;;9.57;;
66298;SDS011;53098;47.658;8.578;2022-11-27T09:47:58;18.63;;;10.48;;
66298;SDS011;53098;47.658;8.578;2022-11-27T09:50:29;22.52;;;11.25;;
66298;SDS011;53098;47.658;8.578;2022-11-27T09:53:12;21.35;;;10.98;;
66298;SDS011;53098;47.658;8.578;2022-11-27T09:55:41;21.13;;;10.80;;
66298;SDS011;53098;47.658;8.578;2022-11-27T09:58:15;19.42;;;10.52;;
66298;SDS011;53098;47.658;8.578;2022-11-27T10:00:44;19.88;;;10.48;;
66298;SDS011;53098;47.658;8.578;2022-11-27T10:03:13;18.08;;;9.02;;
66298;SDS011;53098;47.658;8.578;2022-11-27T10:05:45;18.02;;;10.07;;
66298;SDS011;53098;47.658;8.578;2022-11-27T10:19:26;15.95;;;8.70;;
66298;SDS011;53098;47.658;8.578;2022-11-27T10:26:42;18.20;;;9.55;;
66298;SDS011;53098;47.658;8.578;2022-11-27T10:29:12;16.85;;;10.18;;
66298;SDS011;53098;47.658;8.578;2022-11-27T10:31:42;16.10;;;8.35;;
66298;SDS011;53098;47.658;8.578;2022-11-27T10:34:18;17.33;;;9.90;;
66298;SDS011;53098;47.658;8.578;2022-11-27T10:36:45;19.77;;;9.70;;
66298;SDS011;53098;47.658;8.578;2022-11-27T10:39:13;14.75;;;8.75;;
66298;SDS011;53098;47.658;8.578;2022-11-27T10:42:01;16.88;;;9.45;;
66298;SDS011;53098;47.658;8.578;2022-11-27T10:44:31;21.50;;;10.25;;
66298;SDS011;53098;47.658;8.578;2022-11-27T10:47:00;17.98;;;8.38;;
66298;SDS011;53098;47.658;8.578;2022-11-27T10:49:26;14.75;;;8.70;;
66298;SDS011;53098;47.658;8.578;2022-11-27T10:51:51;16.33;;;8.43;;
66298;SDS011;53098;47.658;8.578;2022-11-27T10:54:21;17.77;;;8.77;;
66298;SDS011;53098;47.658;8.578;2022-11-27T10:59:32;16.02;;;8.30;;
66298;SDS011;53098;47.658;8.578;2022-11-27T11:01:59;15.85;;;9.07;;
66298;SDS011;53098;47.658;8.578;2022-11-27T11:04:26;17.92;;;10.18;;
66298;SDS011;53098;47.658;8.578;2022-11-27T11:06:52;19.10;;;9.75;;
66298;SDS011;53098;47.658;8.578;2022-11-27T11:09:20;18.15;;;9.27;;
66298;SDS011;53098;47.658;8.578;2022-11-27T11:11:46;18.20;;;8.90;;
66298;SDS011;53098;47.658;8.578;2022-11-27T11:14:24;16.60;;;8.20;;
66298;SDS011;53098;47.658;8.578;2022-11-27T11:16:50;20.35;;;10.48;;
66298;SDS011;53098;47.658;8.578;2022-11-27T11:19:28;20.02;;;10.43;;
66298;SDS011;53098;47.658;8.578;2022-11-27T11:21:54;20.45;;;10.15;;
66298;SDS011;53098;47.658;8.578;2022-11-27T11:24:27;19.90;;;9.73;;
66298;SDS011;53098;47.658;8.578;2022-11-27T11:26:54;16.63;;;9.40;;
66298;SDS011;53098;47.658;8.578;2022-11-27T11:29:25;21.85;;;10.32;;
66298;SDS011;53098;47.658;8.578;2022-11-27T11:31:51;16.90;;;9.60;;
66298;SDS011;53098;47.658;8.578;2022-11-27T11:34:27;16.88;;;9.73;;
66298;SDS011;53098;47.658;8.578;2022-11-27T11:37:01;17.23;;;9.70;;
66298;SDS011;53098;47.658;8.578;2022-11-27T11:39:28;17.45;;;9.55;;
66298;SDS011;53098;47.658;8.578;2022-11-27T11:41:53;16.52;;;8.70;;
66298;SDS011;53098;47.658;8.578;2022-11-27T11:44:21;15.80;;;9.23;;
66298;SDS011;53098;47.658;8.578;2022-11-27T11:46:51;20.67;;;8.70;;
66298;SDS011;53098;47.658;8.578;2022-11-27T11:49:20;14.98;;;7.90;;
66298;SDS011;53098;47.658;8.578;2022-11-27T11:56:49;17.95;;;8.43;;
66298;SDS011;53098;47.658;8.578;2022-11-27T12:07:13;28.20;;;15.33;;
66298;SDS011;53098;47.658;8.578;2022-11-27T12:09:50;31.58;;;15.18;;
66298;SDS011;53098;47.658;8.578;2022-11-27T12:12:27;22.15;;;11.57;;
66298;SDS011;53098;47.658;8.578;2022-11-27T12:25:44;20.33;;;9.75;;
66298;SDS011;53098;47.658;8.578;2022-11-27T12:33:17;17.00;;;8.73;;
66298;SDS011;53098;47.658;8.578;2022-11-27T12:43:24;16.85;;;8.68;;
66298;SDS011;53098;47.658;8.578;2022-11-27T12:45:52;24.25;;;11.65;;
66298;SDS011;53098;47.658;8.578;2022-11-27T12:48:32;17.17;;;8.27;;
66298;SDS011;53098;47.658;8.578;2022-11-27T12:51:05;20.30;;;9.88;;
66298;SDS011;53098;47.658;8.578;2022-11-27T12:53:38;16.05;;;8.73;;
66298;SDS011;53098;47.658;8.578;2022-11-27T12:57:06;15.52;;;8.48;;
66298;SDS011;53098;47.658;8.578;2022-11-27T12:59:20;16.95;;;8.15;;
66298;SDS011;53098;47.658;8.578;2022-11-27T13:01:50;18.40;;;9.30;;
66298;SDS011;53098;47.658;8.578;2022-11-27T13:04:18;13.68;;;7.32;;
66298;SDS011;53098;47.658;8.578;2022-11-27T13:06:53;13.98;;;7.70;;
66298;SDS011;53098;47.658;8.578;2022-11-27T13:12:00;14.13;;;8.00;;
66298;SDS011;53098;47.658;8.578;2022-11-27T13:14:26;14.50;;;8.02;;
66298;SDS011;53098;47.658;8.578;2022-11-27T13:16:55;15.32;;;7.55;;
66298;SDS011;53098;47.658;8.578;2022-11-27T13:19:29;15.30;;;8.05;;
66298;SDS011;53098;47.658;8.578;2022-11-27T13:21:55;15.27;;;8.00;;
66298;SDS011;53098;47.658;8.578;2022-11-27T13:24:22;14.68;;;7.40;;
66298;SDS011;53098;47.658;8.578;2022-11-27T13:29:30;14.98;;;7.68;;
66298;SDS011;53098;47.658;8.578;2022-11-27T13:32:00;17.38;;;8.15;;
66298;SDS011;53098;47.658;8.578;2022-11-27T13:34:27;15.82;;;7.65;;
66298;SDS011;53098;47.658;8.578;2022-11-27T13:37:06;13.98;;;7.55;;
66298;SDS011;53098;47.658;8.578;2022-11-27T13:39:33;15.00;;;7.50;;
66298;SDS011;53098;47.658;8.578;2022-11-27T13:47:08;17.00;;;7.77;;
66298;SDS011;53098;47.658;8.578;2022-11-27T13:49:35;16.00;;;7.70;;
66298;SDS011;53098;47.658;8.578;2022-11-27T13:52:05;15.88;;;8.13;;
66298;SDS011;53098;47.658;8.578;2022-11-27T13:54:30;13.88;;;7.88;;
66298;SDS011;53098;47.658;8.578;2022-11-27T13:56:56;16.00;;;8.03;;
66298;SDS011;53098;47.658;8.578;2022-11-27T13:59:22;14.85;;;8.25;;
66298;SDS011;53098;47.658;8.578;2022-11-27T14:04:22;14.30;;;7.40;;
66298;SDS011;53098;47.658;8.578;2022-11-27T14:06:53;14.73;;;8.13;;
66298;SDS011;53098;47.658;8.578;2022-11-27T14:09:19;15.43;;;7.93;;
66298;SDS011;53098;47.658;8.578;2022-11-27T14:11:55;15.43;;;8.13;;
66298;SDS011;53098;47.658;8.578;2022-11-27T14:14:21;15.35;;;7.93;;
66298;SDS011;53098;47.658;8.578;2022-11-27T14:16:57;17.05;;;8.15;;
66298;SDS011;53098;47.658;8.578;2022-11-27T14:19:25;18.52;;;8.00;;
66298;SDS011;53098;47.658;8.578;2022-11-27T14:21:51;14.02;;;6.97;;
66298;SDS011;53098;47.658;8.578;2022-11-27T14:24:24;14.02;;;7.30;;
66298;SDS011;53098;47.658;8.578;2022-11-27T14:26:50;14.75;;;7.53;;
66298;SDS011;53098;47.658;8.578;2022-11-27T14:29:15;13.40;;;7.50;;
66298;SDS011;53098;47.658;8.578;2022-11-27T14:31:54;14.32;;;7.28;;
66298;SDS011;53098;47.658;8.578;2022-11-27T14:34:53;15.15;;;8.10;;
66298;SDS011;53098;47.658;8.578;2022-11-27T14:37:24;14.32;;;7.60;;
66298;SDS011;53098;47.658;8.578;2022-11-27T14:39:50;13.65;;;7.38;;
66298;SDS011;53098;47.658;8.578;2022-11-27T14:42:19;15.13;;;8.55;;
66298;SDS011;53098;47.658;8.578;2022-11-27T14:44:45;18.15;;;9.52;;
66298;SDS011;53098;47.658;8.578;2022-11-27T14:47:14;16.23;;;8.43;;
66298;SDS011;53098;47.658;8.578;2022-11-27T14:49:42;16.77;;;7.97;;
66298;SDS011;53098;47.658;8.578;2022-11-27T14:52:07;13.10;;;7.35;;
66298;SDS011;53098;47.658;8.578;2022-11-27T14:54:38;14.15;;;7.95;;
66298;SDS011;53098;47.658;8.578;2022-11-27T14:57:04;14.57;;;7.57;;
66298;SDS011;53098;47.658;8.578;2022-11-27T14:59:30;16.30;;;7.53;;
66298;SDS011;53098;47.658;8.578;2022-11-27T15:04:24;14.45;;;7.50;;
66298;SDS011;53098;47.658;8.578;2022-11-27T15:06:50;17.00;;;8.10;;
66298;SDS011;53098;47.658;8.578;2022-11-27T15:09:16;14.32;;;7.97;;
66298;SDS011;53098;47.658;8.578;2022-11-27T15:11:42;14.30;;;7.63;;
66298;SDS011;53098;47.658;8.578;2022-11-27T15:14:11;14.40;;;7.50;;
66298;SDS011;53098;47.658;8.578;2022-11-27T15:16:37;13.98;;;7.35;;
66298;SDS011;53098;47.658;8.578;2022-11-27T15:19:11;14.43;;;7.47;;
66298;SDS011;53098;47.658;8.578;2022-11-27T15:21:40;15.18;;;7.70;;
66298;SDS011;53098;47.658;8.578;2022-11-27T15:24:19;12.63;;;7.00;;
66298;SDS011;53098;47.658;8.578;2022-11-27T15:26:50;16.15;;;7.60;;
66298;SDS011;53098;47.658;8.578;2022-11-27T15:29:35;15.25;;;7.70;;
66298;SDS011;53098;47.658;8.578;2022-11-27T15:32:00;14.88;;;7.78;;
66298;SDS011;53098;47.658;8.578;2022-11-27T15:34:29;13.75;;;7.25;;
66298;SDS011;53098;47.658;8.578;2022-11-27T15:39:31;14.20;;;7.53;;
66298;SDS011;53098;47.658;8.578;2022-11-27T15:42:00;16.85;;;8.70;;
66298;SDS011;53098;47.658;8.578;2022-11-27T15:44:27;16.85;;;8.63;;
66298;SDS011;53098;47.658;8.578;2022-11-27T15:46:53;21.80;;;10.63;;
66298;SDS011;53098;47.658;8.578;2022-11-27T15:49:19;34.95;;;16.65;;
66298;SDS011;53098;47.658;8.578;2022-11-27T15:51:44;43.37;;;18.67;;
66298;SDS011;53098;47.658;8.578;2022-11-27T15:54:09;44.63;;;19.93;;
66298;SDS011;53098;47.658;8.578;2022-11-27T15:56:34;50.33;;;22.13;;
66298;SDS011;53098;47.658;8.578;2022-11-27T15:59:00;40.77;;;17.50;;
66298;SDS011;53098;47.658;8.578;2022-11-27T16:01:25;24.80;;;14.57;;
66298;SDS011;53098;47.658;8.578;2022-11-27T16:03:50;20.00;;;12.33;;
66298;SDS011;53098;47.658;8.578;2022-11-27T16:06:16;19.92;;;12.35;;
66298;SDS011;53098;47.658;8.578;2022-11-27T16:08:41;19.77;;;11.47;;
66298;SDS011;53098;47.658;8.578;2022-11-27T16:11:08;22.17;;;15.30;;
66298;SDS011;53098;47.658;8.578;2022-11-27T16:13:34;21.88;;;11.10;;
66298;SDS011;53098;47.658;8.578;2022-11-27T16:16:00;13.93;;;8.40;;
66298;SDS011;53098;47.658;8.578;2022-11-27T16:18:25;15.82;;;8.32;;
66298;SDS011;53098;47.658;8.578;2022-11-27T16:20:50;15.77;;;8.03;;